createdAt,value
2022-10-08T00:01:02.384Z,59.72
2022-10-08T00:02:06.650Z,61.02
2022-10-08T00:03:08.331Z,62.10
2022-10-08T00:04:12.027Z,63.33
2022-10-08T00:05:13.768Z,64.60
2022-10-08T00:06:29.981Z,64.51
2022-10-08T00:07:32.744Z,63.37
2022-10-08T00:08:38.509Z,62.29
2022-10-08T00:09:40.160Z,61.14
2022-10-08T00:10:41.820Z,60.21
2022-10-08T00:11:43.879Z,59.44
2022-10-08T00:12:45.822Z,58.36
2022-10-08T00:13:50.501Z,57.69
2022-10-08T00:14:52.128Z,58.09
2022-10-08T00:15:54.723Z,58.96
2022-10-08T00:16:56.430Z,60.01
2022-10-08T00:17:58.097Z,61.09
2022-10-08T00:19:04.345Z,62.01
2022-10-08T00:20:06.323Z,63.31
2022-10-08T00:21:14.469Z,64.47
2022-10-08T00:22:16.141Z,64.28
2022-10-08T00:23:17.850Z,63.27
2022-10-08T00:24:21.353Z,62.03
2022-10-08T00:25:23.624Z,60.88
2022-10-08T00:26:28.169Z,59.88
2022-10-08T00:27:29.893Z,58.77
2022-10-08T00:28:31.590Z,57.60
2022-10-08T00:29:33.448Z,57.54
2022-10-08T00:30:42.770Z,58.22
2022-10-08T00:31:47.203Z,59.28
2022-10-08T00:32:49.345Z,60.19
2022-10-08T00:33:54.936Z,61.20
2022-10-08T00:34:57.231Z,62.29
2022-10-08T00:36:08.817Z,63.61
2022-10-08T00:37:10.487Z,64.58
2022-10-08T00:38:12.132Z,64.08
2022-10-08T00:39:17.795Z,63.05
2022-10-08T00:40:19.459Z,61.85
2022-10-08T00:41:25.196Z,60.82
2022-10-08T00:42:26.965Z,59.88
2022-10-08T00:43:47.330Z,59.04
2022-10-08T00:44:56.100Z,57.63
2022-10-08T00:45:57.839Z,57.87
2022-10-08T00:46:59.596Z,58.66
2022-10-08T00:48:01.548Z,59.67
2022-10-08T00:49:11.612Z,60.76
2022-10-08T00:50:30.167Z,61.72
2022-10-08T00:51:33.915Z,63.30
2022-10-08T00:52:47.979Z,64.60
2022-10-08T00:53:50.908Z,64.44
2022-10-08T00:54:52.940Z,63.48
2022-10-08T00:55:54.930Z,62.34
2022-10-08T00:56:56.694Z,61.32
2022-10-08T00:58:05.102Z,60.45
2022-10-08T00:59:10.643Z,59.59
2022-10-08T01:00:25.466Z,58.55
2022-10-08T01:01:27.378Z,57.71
2022-10-08T01:02:29.185Z,58.12
2022-10-08T01:03:30.831Z,59.17
2022-10-08T01:04:32.563Z,60.27
2022-10-08T01:06:07.856Z,61.33
2022-10-08T01:07:33.060Z,63.33
2022-10-08T01:09:04.982Z,64.71
2022-10-08T01:10:35.930Z,63.95
2022-10-08T01:11:48.146Z,62.41
2022-10-08T01:13:19.824Z,61.27
2022-10-08T01:14:30.063Z,60.06
2022-10-08T01:16:16.249Z,59.27
2022-10-08T01:17:34.681Z,57.76
2022-10-08T01:18:50.053Z,58.39
2022-10-08T01:20:16.878Z,59.58
2022-10-08T01:21:27.749Z,60.99
2022-10-08T01:22:59.406Z,62.24
2022-10-08T01:24:17.180Z,64.36
2022-10-08T01:25:56.425Z,64.72
2022-10-08T01:27:07.104Z,63.32
2022-10-08T01:28:44.036Z,62.12
2022-10-08T01:29:50.791Z,60.65
2022-10-08T01:31:05.544Z,59.90
2022-10-08T01:32:19.407Z,58.99
2022-10-08T01:33:29.178Z,57.86
2022-10-08T01:34:40.307Z,58.07
2022-10-08T01:35:51.481Z,59.23
2022-10-08T01:36:57.348Z,60.45
2022-10-08T01:38:04.884Z,61.67
2022-10-08T01:39:16.203Z,62.95
2022-10-08T01:40:23.904Z,64.59
2022-10-08T01:41:29.865Z,64.69
2022-10-08T01:42:36.912Z,63.91
2022-10-08T01:43:46.858Z,62.70
2022-10-08T01:44:58.312Z,61.54
2022-10-08T01:46:30.096Z,60.57
2022-10-08T01:47:37.401Z,59.63
2022-10-08T01:48:42.972Z,58.73
2022-10-08T01:49:55.373Z,57.93
2022-10-08T01:51:21.081Z,58.34
2022-10-08T01:52:32.989Z,59.76
2022-10-08T01:53:40.801Z,61.09
2022-10-08T01:54:46.551Z,62.02
2022-10-08T01:55:53.583Z,63.60
2022-10-08T01:57:00.096Z,64.79
2022-10-08T01:58:13.981Z,64.52
2022-10-08T01:59:24.792Z,63.39
2022-10-08T02:00:26.477Z,62.16
2022-10-08T02:01:49.963Z,61.19
2022-10-08T02:02:55.458Z,60.04
2022-10-08T02:04:15.996Z,59.39
2022-10-08T02:05:18.066Z,58.03
2022-10-08T02:06:20.061Z,57.89
2022-10-08T02:07:30.409Z,58.51
2022-10-08T02:08:32.140Z,59.61
2022-10-08T02:09:40.812Z,60.59
2022-10-08T02:10:43.481Z,61.77
2022-10-08T02:11:45.276Z,62.54
2022-10-08T02:12:47.183Z,64.04
2022-10-08T02:13:49.280Z,64.87
2022-10-08T02:14:55.675Z,64.45
2022-10-08T02:16:11.742Z,63.31
2022-10-08T02:17:16.129Z,61.96
2022-10-08T02:18:37.860Z,60.86
2022-10-08T02:20:00.323Z,59.78
2022-10-08T02:21:09.099Z,58.63
2022-10-08T02:22:17.078Z,57.71
2022-10-08T02:23:32.477Z,58.11
2022-10-08T02:24:44.096Z,59.22
2022-10-08T02:25:58.128Z,60.37
2022-10-08T02:27:05.062Z,61.74
2022-10-08T02:28:30.697Z,63.03
2022-10-08T02:30:04.516Z,64.63
2022-10-08T02:31:24.421Z,63.92
2022-10-08T02:32:52.975Z,62.67
2022-10-08T02:34:04.085Z,61.14
2022-10-08T02:35:33.435Z,60.19
2022-10-08T02:36:41.817Z,59.07
2022-10-08T02:37:52.853Z,57.92
2022-10-08T02:38:59.504Z,58.02
2022-10-08T02:40:10.938Z,58.95
2022-10-08T02:41:15.514Z,60.04
2022-10-08T02:42:23.439Z,61.12
2022-10-08T02:43:31.456Z,62.37
2022-10-08T02:44:40.938Z,64.03
2022-10-08T02:45:54.503Z,64.77
2022-10-08T02:47:00.824Z,64.03
2022-10-08T02:48:22.012Z,62.91
2022-10-08T02:49:33.693Z,61.48
2022-10-08T02:50:41.345Z,60.46
2022-10-08T02:51:51.604Z,59.71
2022-10-08T02:52:53.689Z,58.60
2022-10-08T02:53:56.183Z,57.80
2022-10-08T02:55:01.407Z,58.08
2022-10-08T02:56:19.916Z,59.06
2022-10-08T02:57:34.391Z,60.36
2022-10-08T02:58:36.798Z,61.62
2022-10-08T02:59:39.030Z,62.58
2022-10-08T03:00:54.786Z,63.87
2022-10-08T03:02:02.756Z,64.62
2022-10-08T03:03:15.549Z,63.87
2022-10-08T03:04:26.105Z,62.70
2022-10-08T03:05:29.277Z,61.56
2022-10-08T03:06:32.822Z,60.69
2022-10-08T03:07:35.364Z,59.94
2022-10-08T03:08:42.439Z,59.28
2022-10-08T03:09:47.500Z,58.06
2022-10-08T03:10:50.603Z,57.92
2022-10-08T03:11:54.287Z,58.63
2022-10-08T03:13:04.651Z,59.73
2022-10-08T03:14:12.008Z,60.91
2022-10-08T03:15:14.793Z,62.00
2022-10-08T03:16:22.608Z,63.28
2022-10-08T03:17:41.280Z,64.73
2022-10-08T03:18:45.000Z,64.70
2022-10-08T03:19:46.784Z,63.76
2022-10-08T03:20:53.521Z,62.65
2022-10-08T03:21:56.584Z,61.56
2022-10-08T03:23:01.714Z,60.69
2022-10-08T03:24:03.517Z,59.92
2022-10-08T03:25:05.707Z,59.31
2022-10-08T03:26:07.619Z,58.24
2022-10-08T03:27:09.260Z,57.90
2022-10-08T03:28:12.017Z,58.44
2022-10-08T03:29:13.801Z,59.39
2022-10-08T03:30:15.454Z,60.39
2022-10-08T03:31:17.158Z,61.58
2022-10-08T03:32:18.913Z,62.61
2022-10-08T03:33:20.733Z,64.02
2022-10-08T03:34:25.180Z,64.68
2022-10-08T03:35:26.846Z,64.22
2022-10-08T03:36:29.936Z,63.39
2022-10-08T03:37:31.587Z,62.17
2022-10-08T03:38:34.250Z,61.32
2022-10-08T03:39:36.181Z,60.46
2022-10-08T03:40:37.840Z,59.89
2022-10-08T03:41:39.877Z,59.40
2022-10-08T03:42:41.531Z,58.46
2022-10-08T03:43:44.260Z,57.91
2022-10-08T03:44:46.015Z,58.52
2022-10-08T03:45:54.968Z,59.49
2022-10-08T03:46:56.663Z,60.75
2022-10-08T03:47:58.314Z,61.89
2022-10-08T03:48:59.988Z,63.11
2022-10-08T03:50:01.722Z,64.64
2022-10-08T03:51:10.361Z,65.06
2022-10-08T03:52:11.995Z,64.46
2022-10-08T03:53:13.653Z,63.45
2022-10-08T03:54:15.329Z,62.52
2022-10-08T03:55:17.976Z,61.65
2022-10-08T03:56:25.761Z,61.01
2022-10-08T03:57:27.491Z,60.27
2022-10-08T03:58:29.807Z,59.75
2022-10-08T03:59:31.468Z,59.15
2022-10-08T04:00:33.083Z,58.25
2022-10-08T04:01:34.804Z,58.20
2022-10-08T04:02:36.532Z,58.89
2022-10-08T04:03:38.312Z,60.11
2022-10-08T04:04:39.930Z,61.16
2022-10-08T04:05:49.692Z,62.37
2022-10-08T04:06:51.432Z,64.17
2022-10-08T04:07:53.090Z,64.90
2022-10-08T04:09:00.785Z,64.48
2022-10-08T04:10:02.686Z,63.50
2022-10-08T04:11:06.005Z,62.69
2022-10-08T04:12:07.665Z,61.80
2022-10-08T04:13:09.321Z,60.90
2022-10-08T04:14:11.057Z,60.45
2022-10-08T04:15:12.868Z,59.91
2022-10-08T04:16:19.214Z,59.42
2022-10-08T04:17:20.970Z,58.46
2022-10-08T04:18:22.602Z,58.15
2022-10-08T04:19:24.208Z,58.78
2022-10-08T04:20:25.967Z,59.41
2022-10-08T04:21:30.744Z,60.67
2022-10-08T04:22:32.488Z,62.18
2022-10-08T04:23:37.172Z,63.52
2022-10-08T04:24:38.817Z,64.80
2022-10-08T04:25:51.019Z,64.71
2022-10-08T04:26:52.698Z,63.69
2022-10-08T04:27:54.335Z,62.76
2022-10-08T04:28:56.015Z,61.86
2022-10-08T04:29:57.677Z,61.02
2022-10-08T04:31:05.648Z,60.44
2022-10-08T04:32:07.347Z,59.80
2022-10-08T04:33:08.988Z,59.29
2022-10-08T04:34:11.580Z,58.30
2022-10-08T04:35:13.302Z,57.89
2022-10-08T04:36:18.545Z,58.55
2022-10-08T04:37:20.316Z,59.41
2022-10-08T04:38:23.564Z,60.43
2022-10-08T04:39:25.312Z,61.69
2022-10-08T04:40:26.942Z,62.74
2022-10-08T04:41:28.616Z,64.55
2022-10-08T04:42:30.260Z,65.37
2022-10-08T04:43:32.080Z,65.00
2022-10-08T04:44:34.060Z,64.03
2022-10-08T04:45:42.336Z,63.29
2022-10-08T04:46:44.069Z,62.15
2022-10-08T04:47:45.932Z,61.41
2022-10-08T04:48:53.580Z,60.72
2022-10-08T04:49:55.369Z,60.13
2022-10-08T04:51:04.078Z,59.70
2022-10-08T04:52:07.676Z,59.51
2022-10-08T04:53:09.422Z,58.84
2022-10-08T04:54:11.650Z,58.17
2022-10-08T04:55:13.383Z,58.62
2022-10-08T04:56:18.658Z,59.54
2022-10-08T04:57:20.356Z,60.61
2022-10-08T04:58:24.844Z,61.67
2022-10-08T04:59:26.474Z,62.96
2022-10-08T05:00:28.153Z,64.57
2022-10-08T05:01:31.169Z,65.06
2022-10-08T05:02:33.920Z,64.44
2022-10-08T05:03:40.212Z,63.67
2022-10-08T05:04:41.851Z,62.52
2022-10-08T05:05:46.108Z,61.72
2022-10-08T05:06:47.754Z,61.01
2022-10-08T05:07:49.830Z,60.34
2022-10-08T05:08:52.188Z,59.97
2022-10-08T05:09:53.872Z,59.40
2022-10-08T05:10:55.553Z,58.68
2022-10-08T05:11:57.182Z,58.11
2022-10-08T05:12:58.817Z,58.68
2022-10-08T05:14:01.586Z,59.51
2022-10-08T05:15:03.588Z,60.50
2022-10-08T05:16:11.995Z,61.38
2022-10-08T05:17:13.687Z,62.81
2022-10-08T05:18:15.636Z,63.98
2022-10-08T05:19:17.342Z,64.72
2022-10-08T05:20:19.125Z,64.60
2022-10-08T05:21:25.397Z,63.75
2022-10-08T05:22:27.228Z,62.95
2022-10-08T05:23:29.015Z,62.29
2022-10-08T05:24:30.696Z,61.40
2022-10-08T05:25:34.563Z,60.66
2022-10-08T05:26:58.008Z,60.15
2022-10-08T05:28:01.204Z,59.67
2022-10-08T05:29:03.732Z,58.98
2022-10-08T05:30:06.336Z,58.06
2022-10-08T05:31:08.004Z,57.89
2022-10-08T05:32:09.659Z,58.87
2022-10-08T05:33:11.309Z,60.24
2022-10-08T05:34:14.259Z,61.21
2022-10-08T05:35:16.143Z,62.19
2022-10-08T05:36:24.599Z,63.47
2022-10-08T05:37:26.277Z,64.96
2022-10-08T05:38:34.661Z,65.20
2022-10-08T05:39:36.796Z,64.25
2022-10-08T05:40:38.444Z,63.29
2022-10-08T05:41:41.347Z,62.55
2022-10-08T05:42:42.995Z,61.52
2022-10-08T05:43:45.456Z,61.02
2022-10-08T05:44:47.465Z,60.23
2022-10-08T05:45:50.577Z,59.68
2022-10-08T05:46:52.256Z,59.57
2022-10-08T05:47:53.952Z,58.97
2022-10-08T05:48:58.023Z,57.87
2022-10-08T05:49:59.745Z,57.96
2022-10-08T05:51:13.860Z,58.70
2022-10-08T05:52:15.522Z,59.81
2022-10-08T05:53:17.408Z,61.25
2022-10-08T05:54:19.603Z,61.75
2022-10-08T05:55:21.296Z,62.81
2022-10-08T05:56:25.135Z,64.94
2022-10-08T05:57:27.712Z,65.65
2022-10-08T05:58:30.557Z,65.12
2022-10-08T05:59:32.443Z,64.04
2022-10-08T06:00:34.134Z,62.92
2022-10-08T06:01:35.802Z,62.10
2022-10-08T06:02:37.475Z,61.13
2022-10-08T06:03:39.413Z,60.50
2022-10-08T06:04:41.119Z,59.88
2022-10-08T06:05:42.761Z,59.24
2022-10-08T06:06:45.760Z,58.25
2022-10-08T06:07:47.410Z,57.98
2022-10-08T06:08:54.775Z,58.39
2022-10-08T06:09:56.395Z,59.24
2022-10-08T06:10:58.731Z,60.34
2022-10-08T06:12:00.372Z,61.39
2022-10-08T06:13:01.984Z,62.07
2022-10-08T06:14:06.407Z,63.03
2022-10-08T06:15:08.397Z,64.99
2022-10-08T06:16:12.098Z,65.30
2022-10-08T06:17:13.907Z,64.73
2022-10-08T06:18:15.554Z,63.92
2022-10-08T06:19:17.223Z,62.76
2022-10-08T06:20:18.984Z,61.66
2022-10-08T06:21:26.305Z,61.03
2022-10-08T06:22:27.983Z,60.28
2022-10-08T06:23:29.696Z,59.80
2022-10-08T06:24:31.493Z,59.16
2022-10-08T06:25:37.003Z,58.21
2022-10-08T06:26:41.354Z,57.78
2022-10-08T06:27:42.972Z,58.31
2022-10-08T06:28:45.768Z,59.40
2022-10-08T06:29:47.513Z,60.31
2022-10-08T06:30:49.164Z,61.57
2022-10-08T06:31:52.445Z,62.41
2022-10-08T06:32:54.177Z,63.93
2022-10-08T06:33:59.110Z,64.91
2022-10-08T06:35:00.799Z,64.71
2022-10-08T06:36:19.040Z,63.76
2022-10-08T06:37:20.711Z,62.37
2022-10-08T06:38:23.120Z,61.58
2022-10-08T06:39:24.847Z,60.55
2022-10-08T06:40:26.575Z,59.93
2022-10-08T06:41:35.707Z,59.30
2022-10-08T06:42:37.688Z,58.00
2022-10-08T06:43:39.335Z,57.48
2022-10-08T06:44:40.980Z,57.92
2022-10-08T06:45:44.556Z,58.99
2022-10-08T06:46:46.258Z,59.85
2022-10-08T06:47:47.931Z,60.87
2022-10-08T06:48:49.565Z,61.60
2022-10-08T06:49:51.225Z,62.65
2022-10-08T06:51:09.821Z,63.93
2022-10-08T06:52:12.502Z,64.84
2022-10-08T06:53:14.159Z,64.38
2022-10-08T06:54:16.418Z,63.39
2022-10-08T06:55:18.378Z,62.18
2022-10-08T06:56:21.317Z,61.38
2022-10-08T06:57:23.043Z,60.43
2022-10-08T06:58:25.233Z,59.59
2022-10-08T06:59:26.852Z,58.53
2022-10-08T07:00:29.217Z,57.92
2022-10-08T07:01:33.863Z,57.77
2022-10-08T07:02:35.904Z,58.23
2022-10-08T07:03:38.360Z,59.11
2022-10-08T07:04:40.275Z,60.22
2022-10-08T07:05:43.273Z,61.55
2022-10-08T07:06:44.945Z,61.84
2022-10-08T07:07:46.606Z,62.52
2022-10-08T07:08:52.332Z,63.68
2022-10-08T07:09:54.000Z,64.84
2022-10-08T07:11:02.539Z,64.53
2022-10-08T07:12:04.275Z,63.47
2022-10-08T07:13:05.982Z,62.28
2022-10-08T07:14:07.665Z,61.38
2022-10-08T07:15:09.883Z,60.56
2022-10-08T07:16:20.550Z,59.97
2022-10-08T07:17:25.831Z,58.88
2022-10-08T07:18:27.451Z,57.49
2022-10-08T07:19:29.091Z,57.23
2022-10-08T07:20:30.730Z,57.64
2022-10-08T07:21:32.455Z,58.87
2022-10-08T07:22:34.082Z,59.75
2022-10-08T07:23:35.701Z,60.49
2022-10-08T07:24:37.345Z,61.36
2022-10-08T07:25:38.957Z,62.12
2022-10-08T07:26:40.711Z,63.09
2022-10-08T07:27:44.915Z,64.30
2022-10-08T07:29:04.669Z,64.82
2022-10-08T07:30:06.885Z,63.94
2022-10-08T07:31:14.732Z,62.68
2022-10-08T07:32:16.416Z,61.52
2022-10-08T07:33:18.207Z,60.39
2022-10-08T07:34:19.937Z,59.30
2022-10-08T07:35:21.567Z,57.86
2022-10-08T07:36:25.259Z,57.11
2022-10-08T07:37:27.007Z,57.28
2022-10-08T07:38:28.605Z,58.08
2022-10-08T07:39:30.245Z,58.93
2022-10-08T07:40:31.939Z,60.16
2022-10-08T07:41:34.211Z,61.08
2022-10-08T07:42:35.841Z,61.48
2022-10-08T07:43:41.108Z,62.62
2022-10-08T07:44:42.829Z,64.03
2022-10-08T07:45:45.914Z,64.43
2022-10-08T07:46:53.582Z,63.96
2022-10-08T07:47:55.224Z,63.09
2022-10-08T07:48:59.200Z,61.97
2022-10-08T07:50:01.030Z,60.94
2022-10-08T07:51:16.965Z,60.16
2022-10-08T07:52:18.750Z,59.24
2022-10-08T07:53:20.971Z,57.92
2022-10-08T07:54:22.639Z,57.29
2022-10-08T07:55:24.465Z,57.50
2022-10-08T07:56:26.176Z,58.18
2022-10-08T07:57:27.954Z,59.29
2022-10-08T07:58:29.765Z,60.07
2022-10-08T07:59:31.659Z,60.68
2022-10-08T08:00:33.377Z,61.39
2022-10-08T08:01:35.967Z,62.47
2022-10-08T08:02:38.173Z,63.46
2022-10-08T08:03:40.105Z,63.71
2022-10-08T08:04:41.768Z,63.23
2022-10-08T08:05:43.714Z,62.17
2022-10-08T08:06:48.585Z,60.58
2022-10-08T08:07:53.253Z,60.34
2022-10-08T08:08:56.880Z,59.72
2022-10-08T08:09:58.605Z,58.10
2022-10-08T08:11:02.555Z,57.25
2022-10-08T08:12:04.261Z,57.30
2022-10-08T08:13:06.024Z,57.75
2022-10-08T08:14:08.232Z,59.03
2022-10-08T08:15:10.411Z,60.06
2022-10-08T08:16:18.135Z,60.50
2022-10-08T08:17:19.862Z,61.19
2022-10-08T08:18:21.648Z,62.01
2022-10-08T08:19:24.290Z,63.17
2022-10-08T08:20:26.050Z,64.54
2022-10-08T08:21:30.424Z,64.58
2022-10-08T08:22:32.153Z,63.41
2022-10-08T08:23:37.311Z,62.31
2022-10-08T08:24:39.100Z,61.00
2022-10-08T08:25:40.725Z,59.89
2022-10-08T08:26:43.764Z,58.60
2022-10-08T08:27:45.465Z,57.36
2022-10-08T08:28:56.031Z,57.29
2022-10-08T08:29:57.733Z,57.47
2022-10-08T08:31:13.180Z,58.55
2022-10-08T08:32:15.505Z,59.06
2022-10-08T08:33:17.333Z,60.04
2022-10-08T08:34:24.403Z,60.64
2022-10-08T08:35:26.180Z,61.32
2022-10-08T08:36:34.762Z,62.14
2022-10-08T08:37:36.478Z,62.61
2022-10-08T08:38:38.844Z,63.69
2022-10-08T08:39:41.172Z,64.29
2022-10-08T08:40:42.811Z,63.94
2022-10-08T08:42:15.775Z,63.03
2022-10-08T08:43:17.457Z,61.12
2022-10-08T08:44:23.663Z,59.66
2022-10-08T08:45:48.767Z,58.14
2022-10-08T08:47:19.448Z,57.60
2022-10-08T08:48:26.453Z,58.20
2022-10-08T08:49:39.945Z,59.36
2022-10-08T08:50:47.907Z,60.83
2022-10-08T08:51:52.629Z,61.48
2022-10-08T08:52:56.153Z,62.04
2022-10-08T08:53:59.159Z,63.03
2022-10-08T08:55:01.968Z,63.58
2022-10-08T08:56:08.161Z,63.17
2022-10-08T08:57:31.403Z,61.29
2022-10-08T08:58:58.664Z,60.41
2022-10-08T09:00:06.922Z,58.52
2022-10-08T09:01:09.168Z,57.69
2022-10-08T09:02:26.296Z,58.09
2022-10-08T09:03:47.590Z,58.61
2022-10-08T09:04:57.421Z,59.74
2022-10-08T09:06:06.087Z,60.34
2022-10-08T09:07:15.190Z,61.85
2022-10-08T09:08:30.846Z,62.13
2022-10-08T09:09:44.996Z,63.07
2022-10-08T09:10:50.421Z,63.69
2022-10-08T09:11:52.094Z,63.34
2022-10-08T09:12:55.843Z,62.24
2022-10-08T09:14:09.319Z,61.21
2022-10-08T09:15:21.768Z,60.19
2022-10-08T09:16:26.554Z,58.26
2022-10-08T09:17:32.826Z,57.02
2022-10-08T09:18:34.552Z,56.60
2022-10-08T09:19:39.939Z,56.66
2022-10-08T09:20:42.220Z,57.61
2022-10-08T09:21:43.918Z,58.39
2022-10-08T09:22:46.375Z,58.97
2022-10-08T09:23:48.271Z,59.60
2022-10-08T09:24:54.757Z,60.04
2022-10-08T09:26:19.402Z,60.34
2022-10-08T09:27:21.305Z,61.21
2022-10-08T09:28:44.546Z,61.77
2022-10-08T09:29:46.813Z,62.26
2022-10-08T09:30:48.595Z,62.54
2022-10-08T09:31:50.630Z,63.40
2022-10-08T09:32:59.883Z,63.28
2022-10-08T09:34:04.554Z,62.91
2022-10-08T09:35:10.399Z,61.22
2022-10-08T09:36:12.302Z,60.02
2022-10-08T09:37:26.199Z,59.20
2022-10-08T09:38:35.278Z,56.88
2022-10-08T09:39:38.248Z,55.83
2022-10-08T09:40:39.899Z,56.00
2022-10-08T09:41:41.682Z,56.55
2022-10-08T09:42:43.874Z,57.24
2022-10-08T09:44:21.665Z,58.11
2022-10-08T09:45:43.117Z,59.04
2022-10-08T09:46:46.450Z,59.89
2022-10-08T09:48:19.811Z,60.06
2022-10-08T09:49:33.929Z,60.61
2022-10-08T09:50:37.609Z,61.01
2022-10-08T09:51:42.833Z,61.10
2022-10-08T09:52:48.576Z,61.43
2022-10-08T09:53:59.052Z,61.64
2022-10-08T09:55:16.818Z,61.96
2022-10-08T09:56:28.320Z,62.49
2022-10-08T09:57:33.860Z,63.65
2022-10-08T09:59:06.256Z,64.01
2022-10-08T10:00:23.396Z,62.31
2022-10-08T10:01:26.048Z,60.94
2022-10-08T10:02:30.299Z,59.56
2022-10-08T10:03:35.403Z,57.35
2022-10-08T10:04:40.427Z,55.58
2022-10-08T10:05:42.695Z,55.36
2022-10-08T10:06:48.379Z,55.74
2022-10-08T10:07:51.781Z,56.15
2022-10-08T10:08:59.519Z,56.98
2022-10-08T10:10:04.601Z,57.84
2022-10-08T10:11:06.477Z,58.07
2022-10-08T10:12:28.689Z,58.74
2022-10-08T10:13:39.994Z,58.88
2022-10-08T10:15:03.930Z,59.16
2022-10-08T10:16:16.991Z,59.15
2022-10-08T10:17:36.266Z,59.64
2022-10-08T10:18:55.984Z,59.68
2022-10-08T10:20:05.444Z,60.16
2022-10-08T10:21:17.892Z,60.37
2022-10-08T10:22:32.645Z,60.15
2022-10-08T10:23:48.138Z,60.64
2022-10-08T10:25:01.323Z,61.06
2022-10-08T10:26:06.953Z,61.12
2022-10-08T10:27:25.580Z,61.31
2022-10-08T10:28:48.398Z,61.64
2022-10-08T10:30:17.097Z,61.99
2022-10-08T10:31:40.160Z,61.94
2022-10-08T10:32:51.018Z,61.65
2022-10-08T10:34:12.643Z,61.36
2022-10-08T10:35:29.238Z,61.00
2022-10-08T10:36:46.133Z,61.07
2022-10-08T10:37:55.689Z,61.17
2022-10-08T10:39:11.910Z,61.11
2022-10-08T10:40:30.893Z,61.01
2022-10-08T10:41:57.142Z,60.90
2022-10-08T10:43:14.508Z,60.83
2022-10-08T10:44:25.561Z,60.69
2022-10-08T10:45:35.047Z,60.65
2022-10-08T10:46:44.499Z,60.79
2022-10-08T10:47:48.937Z,60.85
2022-10-08T10:48:51.149Z,60.78
2022-10-08T10:49:52.991Z,60.52
2022-10-08T10:51:11.447Z,60.25
2022-10-08T10:52:13.083Z,60.15
2022-10-08T10:53:14.614Z,60.11
2022-10-08T10:54:47.521Z,60.05
2022-10-08T10:56:11.900Z,59.76
2022-10-08T10:57:45.577Z,59.92
2022-10-08T10:58:59.141Z,59.96
2022-10-08T11:00:15.721Z,60.07
2022-10-08T11:01:52.728Z,60.24
2022-10-08T11:03:23.519Z,60.52
2022-10-08T11:04:30.675Z,60.96
2022-10-08T11:05:36.573Z,60.93
2022-10-08T11:06:53.119Z,60.77
2022-10-08T11:08:30.353Z,60.49
2022-10-08T11:09:58.450Z,60.64
2022-10-08T11:11:17.623Z,60.59
2022-10-08T11:12:35.979Z,60.47
2022-10-08T11:13:56.159Z,60.33
2022-10-08T11:15:31.808Z,60.38
2022-10-08T11:16:39.251Z,60.53
2022-10-08T11:17:50.229Z,60.79
2022-10-08T11:18:58.296Z,60.77
2022-10-08T11:20:14.932Z,60.68
2022-10-08T11:21:37.926Z,60.77
2022-10-08T11:22:55.275Z,60.73
2022-10-08T11:24:29.137Z,60.68
2022-10-08T11:26:02.087Z,60.07
2022-10-08T11:27:18.074Z,59.49
2022-10-08T11:28:29.341Z,59.41
2022-10-08T11:30:14.695Z,59.17
2022-10-08T11:31:38.418Z,58.36
2022-10-08T11:32:45.413Z,58.32
2022-10-08T11:33:50.207Z,58.36
2022-10-08T11:35:04.665Z,58.52
2022-10-08T11:36:32.619Z,58.75
2022-10-08T11:38:08.674Z,58.27
2022-10-08T11:39:16.987Z,58.08
2022-10-08T11:40:24.547Z,58.00
2022-10-08T11:41:36.897Z,57.68
2022-10-08T11:42:48.880Z,57.47
2022-10-08T11:43:58.046Z,57.50
2022-10-08T11:45:24.402Z,57.43
2022-10-08T11:46:34.153Z,57.55
2022-10-08T11:47:48.982Z,57.77
2022-10-08T11:48:51.469Z,57.68
2022-10-08T11:49:55.830Z,57.15
2022-10-08T11:51:19.149Z,56.72
2022-10-08T11:52:21.772Z,56.43
2022-10-08T11:53:23.605Z,56.36
2022-10-08T11:54:34.356Z,56.46
2022-10-08T11:55:37.781Z,56.81
2022-10-08T11:56:49.573Z,57.05
2022-10-08T11:58:08.145Z,57.19
2022-10-08T11:59:39.593Z,57.14
2022-10-08T12:01:00.341Z,57.15
2022-10-08T12:02:07.377Z,57.14
2022-10-08T12:03:30.311Z,57.37
2022-10-08T12:04:39.600Z,57.43
2022-10-08T12:05:50.175Z,57.70
2022-10-08T12:07:04.404Z,57.98
2022-10-08T12:08:06.390Z,57.45
2022-10-08T12:09:23.010Z,56.86
2022-10-08T12:10:33.039Z,56.24
2022-10-08T12:11:40.125Z,55.92
2022-10-08T12:12:51.034Z,56.19
2022-10-08T12:14:10.719Z,56.52
2022-10-08T12:15:38.861Z,56.90
2022-10-08T12:16:55.530Z,57.23
2022-10-08T12:18:26.304Z,57.53
2022-10-08T12:19:34.375Z,57.86
2022-10-08T12:20:38.894Z,58.03
2022-10-08T12:21:49.106Z,58.30
2022-10-08T12:23:20.026Z,58.55
2022-10-08T12:24:39.714Z,58.82
2022-10-08T12:25:49.028Z,59.17
2022-10-08T12:27:18.303Z,59.52
2022-10-08T12:28:20.457Z,59.92
2022-10-08T12:30:01.821Z,60.09
2022-10-08T12:31:42.673Z,60.37
2022-10-08T12:32:46.157Z,60.62
2022-10-08T12:34:01.043Z,60.33
2022-10-08T12:35:02.921Z,60.27
2022-10-08T12:36:10.645Z,60.48
2022-10-08T12:37:43.085Z,60.57
2022-10-08T12:38:58.268Z,60.43
2022-10-08T12:40:20.160Z,60.43
2022-10-08T12:41:28.378Z,60.56
2022-10-08T12:42:38.285Z,60.62
2022-10-08T12:43:55.722Z,60.79
2022-10-08T12:45:28.972Z,60.80
2022-10-08T12:46:41.825Z,60.79
2022-10-08T12:48:01.462Z,60.85
2022-10-08T12:49:27.214Z,60.90
2022-10-08T12:50:35.095Z,61.04
2022-10-08T12:51:59.467Z,61.24
2022-10-08T12:53:03.633Z,61.32
2022-10-08T12:54:05.593Z,61.40
2022-10-08T12:55:17.748Z,61.62
2022-10-08T12:56:27.983Z,61.78
2022-10-08T12:57:38.064Z,61.66
2022-10-08T12:58:39.906Z,61.38
2022-10-08T12:59:42.610Z,61.29
2022-10-08T13:00:45.646Z,61.41
2022-10-08T13:01:51.682Z,60.63
2022-10-08T13:03:02.198Z,59.89
2022-10-08T13:04:17.771Z,59.65
2022-10-08T13:05:35.144Z,59.51
2022-10-08T13:06:36.794Z,59.57
2022-10-08T13:07:38.520Z,59.08
2022-10-08T13:08:40.492Z,59.16
2022-10-08T13:09:44.680Z,59.20
2022-10-08T13:10:46.488Z,58.81
2022-10-08T13:11:53.729Z,58.01
2022-10-08T13:13:02.659Z,57.29
2022-10-08T13:14:04.795Z,57.00
2022-10-08T13:15:08.967Z,56.11
2022-10-08T13:16:21.466Z,55.77
2022-10-08T13:17:29.399Z,55.63
2022-10-08T13:18:32.685Z,55.63
2022-10-08T13:19:37.693Z,55.33
2022-10-08T13:20:39.449Z,54.50
2022-10-08T13:21:41.217Z,53.95
2022-10-08T13:22:43.392Z,53.66
2022-10-08T13:23:45.058Z,53.88
2022-10-08T13:24:46.826Z,53.44
2022-10-08T13:25:48.446Z,53.26
2022-10-08T13:26:52.424Z,53.49
2022-10-08T13:28:12.696Z,53.82
2022-10-08T13:29:23.630Z,53.59
2022-10-08T13:30:28.853Z,53.34
2022-10-08T13:31:35.180Z,52.84
2022-10-08T13:32:38.272Z,52.77
2022-10-08T13:33:39.954Z,52.97
2022-10-08T13:34:52.397Z,53.02
2022-10-08T13:36:00.285Z,53.19
2022-10-08T13:37:07.380Z,53.47
2022-10-08T13:38:19.533Z,53.79
2022-10-08T13:39:31.489Z,54.00
2022-10-08T13:40:33.697Z,54.27
2022-10-08T13:41:35.398Z,54.50
2022-10-08T13:42:42.801Z,54.44
2022-10-08T13:43:44.433Z,54.32
2022-10-08T13:44:46.525Z,54.39
2022-10-08T13:45:48.240Z,54.60
2022-10-08T13:46:49.979Z,54.61
2022-10-08T13:47:53.039Z,54.48
2022-10-08T13:48:54.671Z,53.97
2022-10-08T13:50:01.679Z,54.00
2022-10-08T13:51:04.115Z,54.26
2022-10-08T13:52:06.577Z,54.40
2022-10-08T13:53:12.130Z,54.54
2022-10-08T13:54:20.983Z,54.75
2022-10-08T13:55:29.334Z,54.93
2022-10-08T13:56:31.039Z,55.13
2022-10-08T13:57:32.943Z,55.34
2022-10-08T13:58:34.618Z,55.65
2022-10-08T13:59:37.078Z,55.96
2022-10-08T14:00:40.041Z,56.35
2022-10-08T14:01:41.752Z,56.70
2022-10-08T14:02:43.394Z,56.77
2022-10-08T14:03:45.000Z,56.96
2022-10-08T14:04:47.443Z,57.22
2022-10-08T14:05:49.247Z,57.61
2022-10-08T14:06:56.093Z,57.91
2022-10-08T14:08:05.308Z,58.24
2022-10-08T14:09:14.578Z,58.42
2022-10-08T14:10:18.937Z,58.57
2022-10-08T14:11:20.624Z,58.89
2022-10-08T14:12:32.099Z,59.08
2022-10-08T14:13:33.742Z,59.17
2022-10-08T14:14:35.681Z,59.27
2022-10-08T14:15:37.549Z,59.54
2022-10-08T14:16:39.248Z,59.71
2022-10-08T14:17:40.897Z,59.79
2022-10-08T14:18:42.513Z,59.89
2022-10-08T14:19:44.327Z,60.12
2022-10-08T14:20:46.100Z,60.31
2022-10-08T14:21:55.581Z,60.50
2022-10-08T14:22:57.352Z,60.68
2022-10-08T14:23:58.946Z,60.87
2022-10-08T14:25:00.658Z,61.05
2022-10-08T14:26:02.261Z,61.36
2022-10-08T14:27:08.247Z,61.54
2022-10-08T14:28:10.283Z,61.67
2022-10-08T14:29:11.922Z,61.80
2022-10-08T14:30:15.837Z,61.92
2022-10-08T14:31:17.514Z,62.08